Time;durP1;ratioP1;P1;durP2;ratioP2;P2;SDS_P1;SDS_P2;PMS_P1;PMS_P2;Temp;Humidity;BMP_temperature;BMP_pressure;BME280_temperature;BME280_humidity;BME280_pressure;Samples;Min_cycle;Max_cycle;Signal;HPM_P1;HPM_P2
2024/03/16 00:00:33;;;;;;;35.15;21.25;;;;;;;11.53;64.00;100267.81;5116206;27;20104;-49
2024/03/16 00:03:02;;;;;;;35.72;20.83;;;;;;;11.56;64.38;100265.78;5116155;27;20100;-46
2024/03/16 00:05:31;;;;;;;34.03;21.02;;;;;;;11.52;64.00;100260.75;5117388;27;20058;-50
2024/03/16 00:07:59;;;;;;;34.55;22.00;;;;;;;11.50;64.64;100268.00;5116703;27;20043;-49
2024/03/16 00:10:28;;;;;;;36.25;21.85;;;;;;;11.45;64.21;100255.78;5116000;27;20507;-49
2024/03/16 00:12:56;;;;;;;32.97;20.83;;;;;;;11.45;64.76;100258.47;5115794;27;20487;-48
2024/03/16 00:15:25;;;;;;;33.95;19.90;;;;;;;11.51;64.65;100254.56;5115945;27;20077;-49
2024/03/16 00:17:53;;;;;;;33.80;20.60;;;;;;;11.45;64.50;100258.47;5115750;27;20043;-50
2024/03/16 00:20:22;;;;;;;34.45;20.60;;;;;;;11.43;64.41;100259.53;5115913;27;20044;-49
2024/03/16 00:22:50;;;;;;;36.95;21.05;;;;;;;11.33;64.71;100258.41;5115597;27;20051;-50
2024/03/16 00:25:19;;;;;;;33.60;19.98;;;;;;;11.28;65.32;100268.50;5116026;27;20050;-48
2024/03/16 00:27:49;;;;;;;34.38;20.00;;;;;;;11.27;65.28;100264.97;5115760;27;20050;-48
2024/03/16 00:30:17;;;;;;;33.13;20.98;;;;;;;11.27;65.45;100267.63;5115695;27;20050;-47
2024/03/16 00:32:47;;;;;;;35.38;20.70;;;;;;;11.29;65.31;100263.09;5115683;27;20352;-46
2024/03/16 00:35:15;;;;;;;36.05;21.45;;;;;;;11.33;65.62;100266.41;5115681;27;20415;-49
2024/03/16 00:37:44;;;;;;;35.88;21.30;;;;;;;11.36;65.17;100260.84;5115677;27;20449;-49
2024/03/16 00:40:17;;;;;;;32.03;20.33;;;;;;;11.34;65.54;100254.75;5115778;27;20479;-49
2024/03/16 00:42:46;;;;;;;33.45;20.20;;;;;;;11.40;64.96;100251.72;5115801;27;20124;-47
2024/03/16 00:45:14;;;;;;;35.35;20.45;;;;;;;11.36;65.30;100264.38;5115381;27;20050;-49
2024/03/16 00:47:43;;;;;;;34.40;20.90;;;;;;;11.35;65.62;100261.81;5115161;27;20039;-50
2024/03/16 00:50:11;;;;;;;34.45;20.27;;;;;;;11.33;65.22;100259.25;5115412;27;20047;-49
2024/03/16 00:52:39;;;;;;;34.50;20.23;;;;;;;11.23;65.81;100254.59;5115279;27;20456;-47
2024/03/16 00:55:09;;;;;;;33.05;20.25;;;;;;;11.27;65.78;100245.41;5114898;27;20097;-48
2024/03/16 00:57:37;;;;;;;32.63;20.50;;;;;;;11.27;65.68;100248.94;5114950;27;20128;-47
2024/03/16 01:00:09;;;;;;;34.22;20.33;;;;;;;11.24;66.03;100250.97;5115009;27;20051;-49
2024/03/16 01:02:39;;;;;;;32.92;20.98;;;;;;;11.18;65.80;100247.72;5115372;27;20043;-48
2024/03/16 01:05:08;;;;;;;34.08;20.90;;;;;;;11.11;66.34;100242.88;5115041;27;20081;-47
2024/03/16 01:07:36;;;;;;;34.45;20.33;;;;;;;11.05;66.45;100240.56;5114735;27;20054;-49
2024/03/16 01:10:05;;;;;;;35.15;20.17;;;;;;;11.08;66.60;100251.91;5114766;27;20051;-49
2024/03/16 01:12:35;;;;;;;34.80;20.27;;;;;;;11.07;66.78;100249.34;5114912;27;20126;-47
2024/03/16 01:15:04;;;;;;;35.67;21.00;;;;;;;11.05;67.24;100241.44;5113675;27;20078;-50
2024/03/16 01:17:34;;;;;;;33.53;20.27;;;;;;;11.11;66.94;100251.75;5115447;27;20047;-50
2024/03/16 01:20:03;;;;;;;33.42;20.50;;;;;;;11.13;66.84;100243.63;5114697;27;20039;-47
2024/03/16 01:22:32;;;;;;;31.45;20.00;;;;;;;11.16;66.59;100238.94;5114323;27;20078;-46
2024/03/16 01:25:00;;;;;;;33.88;20.30;;;;;;;11.11;66.80;100240.19;5114378;27;20126;-47
2024/03/16 01:27:29;;;;;;;35.97;20.67;;;;;;;11.16;66.68;100238.94;5114440;27;20047;-48
2024/03/16 01:29:58;;;;;;;34.40;21.23;;;;;;;11.19;66.66;100235.22;5114566;27;20057;-49
2024/03/16 01:32:26;;;;;;;34.38;20.75;;;;;;;11.15;66.38;100241.72;5114643;27;20043;-48
2024/03/16 01:34:54;;;;;;;30.85;19.70;;;;;;;11.11;66.92;100243.72;5114345;27;20466;-48
2024/03/16 01:37:22;;;;;;;30.95;20.02;;;;;;;11.05;66.71;100241.44;5114510;27;20111;-50
2024/03/16 01:39:51;;;;;;;32.30;20.25;;;;;;;10.94;67.35;100240.38;5114074;27;20500;-47
2024/03/16 01:42:19;;;;;;;32.90;19.65;;;;;;;10.87;67.64;100242.56;5114412;27;20050;-50
2024/03/16 01:45:02;;;;;;;32.25;18.20;;;;;;;10.89;67.78;100240.66;5114171;27;20039;-49
2024/03/16 01:47:32;;;;;;;33.40;19.88;;;;;;;10.98;67.44;100236.56;5115207;27;20087;-48
2024/03/16 01:50:00;;;;;;;31.58;19.35;;;;;;;10.96;67.81;100236.66;5114020;27;20135;-47
2024/03/16 01:52:29;;;;;;;31.15;20.10;;;;;;;10.98;67.17;100233.91;5114166;27;20150;-49
2024/03/16 01:54:57;;;;;;;33.33;19.40;;;;;;;11.03;67.25;100226.47;5114109;27;20051;-47
2024/03/16 01:57:26;;;;;;;31.02;19.17;;;;;;;11.03;67.37;100222.00;5113999;27;20043;-49
2024/03/16 01:59:54;;;;;;;29.65;19.08;;;;;;;10.92;67.45;100227.16;5113873;27;20047;-48
2024/03/16 02:02:32;;;;;;;33.58;19.70;;;;;;;10.93;67.48;100230.66;5113615;27;20074;-49
2024/03/16 02:05:02;;;;;;;32.78;20.05;;;;;;;10.96;67.60;100235.81;5114456;27;20066;-47
2024/03/16 02:07:30;;;;;;;33.63;19.65;;;;;;;10.95;67.52;100234.09;5113944;27;20047;-47
2024/03/16 02:09:59;;;;;;;31.65;19.40;;;;;;;10.91;67.37;100235.25;5114018;27;20058;-49
2024/03/16 02:12:28;;;;;;;32.83;19.40;;;;;;;10.90;67.40;100234.38;5113404;28;20075;-47
2024/03/16 02:14:56;;;;;;;32.33;19.80;;;;;;;10.71;67.81;100237.31;5113473;27;20054;-47
2024/03/16 02:17:24;;;;;;;33.72;19.92;;;;;;;10.82;68.07;100234.00;5113796;28;20131;-48
2024/03/16 02:19:53;;;;;;;34.28;20.05;;;;;;;10.86;68.06;100236.38;5113517;27;20074;-48
2024/03/16 02:22:21;;;;;;;31.05;19.00;;;;;;;10.88;67.80;100236.28;5113678;28;20039;-48
2024/03/16 02:24:50;;;;;;;31.58;20.27;;;;;;;10.92;67.72;100234.28;5113929;28;20043;-47
2024/03/16 02:27:19;;;;;;;30.63;18.80;;;;;;;10.92;67.85;100239.63;5113117;28;20050;-48
2024/03/16 02:29:48;;;;;;;31.33;20.08;;;;;;;10.73;68.34;100239.91;5113895;27;20043;-48
2024/03/16 02:32:17;;;;;;;32.38;19.02;;;;;;;10.58;68.88;100244.34;5113466;28;20054;-48
2024/03/16 02:34:45;;;;;;;35.53;19.92;;;;;;;10.57;69.32;100243.47;5113703;28;20122;-49
2024/03/16 02:37:14;;;;;;;32.88;18.67;;;;;;;10.59;68.95;100251.38;5113409;28;20131;-47
2024/03/16 02:39:42;;;;;;;35.10;19.05;;;;;;;10.69;68.63;100249.88;5113239;28;20079;-47
2024/03/16 02:42:11;;;;;;;34.20;20.38;;;;;;;10.67;69.06;100243.78;5113385;27;20139;-48
2024/03/16 02:44:40;;;;;;;31.48;19.02;;;;;;;10.77;68.72;100236.94;5113189;28;20074;-48
2024/03/16 02:47:10;;;;;;;33.08;19.02;;;;;;;10.87;68.04;100232.75;5113604;28;20051;-49
2024/03/16 02:49:40;;;;;;;30.60;18.55;;;;;;;10.95;68.00;100242.09;5113625;28;20066;-49
2024/03/16 02:52:09;;;;;;;29.67;17.50;;;;;;;10.99;67.93;100240.94;5113599;28;20051;-47
2024/03/16 02:54:38;;;;;;;30.20;19.05;;;;;;;10.77;68.48;100247.59;5113163;27;20057;-46
2024/03/16 02:57:06;;;;;;;29.98;18.80;;;;;;;10.82;68.99;100242.00;5113574;27;20075;-47
2024/03/16 02:59:36;;;;;;;31.60;18.58;;;;;;;10.89;68.42;100251.31;5113404;28;20054;-48
2024/03/16 03:02:05;;;;;;;33.58;19.20;;;;;;;10.85;68.46;100260.47;5113309;28;20496;-46
2024/03/16 03:04:34;;;;;;;30.15;19.05;;;;;;;10.97;68.68;100259.72;5113282;28;20047;-48
2024/03/16 03:07:04;;;;;;;31.83;19.25;;;;;;;11.02;67.86;100262.13;5113158;28;20485;-49
2024/03/16 03:09:32;;;;;;;31.60;18.58;;;;;;;11.00;67.85;100264.00;5113745;28;20415;-46
2024/03/16 03:12:01;;;;;;;29.42;18.10;;;;;;;11.00;67.80;100258.66;5113467;28;20054;-48
2024/03/16 03:14:31;;;;;;;30.90;18.52;;;;;;;11.00;67.75;100258.66;5113229;28;20543;-50
2024/03/16 03:17:00;;;;;;;32.63;18.80;;;;;;;11.04;67.53;100260.22;5113547;28;20130;-52
2024/03/16 03:19:28;;;;;;;32.70;20.23;;;;;;;10.99;68.06;100256.97;5113249;28;20405;-46
2024/03/16 03:21:57;;;;;;;30.55;18.17;;;;;;;10.95;68.05;100250.09;5113039;27;20496;-48
2024/03/16 03:24:25;;;;;;;31.67;19.10;;;;;;;10.98;68.19;100248.09;5113458;28;20145;-48
2024/03/16 03:26:54;;;;;;;31.52;18.80;;;;;;;10.98;68.45;100250.75;5113114;28;20051;-47
2024/03/16 03:29:23;;;;;;;31.90;19.27;;;;;;;11.05;68.00;100240.56;5113142;28;20053;-48
2024/03/16 03:31:51;;;;;;;34.05;19.05;;;;;;;10.97;68.26;100237.53;5112869;28;20133;-46
2024/03/16 03:34:19;;;;;;;30.33;18.77;;;;;;;10.99;68.08;100239.13;5112867;27;20049;-46
2024/03/16 03:36:48;;;;;;;31.50;18.55;;;;;;;10.79;68.53;100243.03;5113251;28;20057;-48
2024/03/16 03:39:16;;;;;;;31.17;18.45;;;;;;;10.62;69.15;100248.56;5115460;27;20522;-49
2024/03/16 03:41:45;;;;;;;31.67;19.20;;;;;;;10.70;69.76;100251.59;5116571;27;20154;-46
2024/03/16 03:44:23;;;;;;;30.08;19.15;;;;;;;10.77;69.19;100247.59;5116349;27;20393;-48
2024/03/16 03:46:54;;;;;;;32.03;19.20;;;;;;;10.67;69.25;100256.25;5117655;27;20142;-50
2024/03/16 03:49:32;;;;;;;31.92;19.98;;;;;;;10.76;69.06;100266.38;5116569;27;20096;-48
2024/03/16 03:52:02;;;;;;;28.13;18.73;;;;;;;10.84;68.97;100256.97;5117571;27;20057;-46
2024/03/16 03:54:34;;;;;;;34.97;19.63;;;;;;;10.85;68.49;100261.34;5116838;27;20072;-47
2024/03/16 03:57:03;;;;;;;30.85;17.90;;;;;;;10.56;69.42;100263.09;5116227;27;20063;-47
2024/03/16 03:59:32;;;;;;;32.72;19.33;;;;;;;10.60;69.39;100267.28;5115879;27;20054;-47
2024/03/16 04:02:01;;;;;;;31.13;19.25;;;;;;;10.56;69.75;100272.91;5116222;27;20053;-47
2024/03/16 04:04:29;;;;;;;30.00;18.50;;;;;;;10.64;69.61;100268.00;5116110;27;20056;-51
2024/03/16 04:06:57;;;;;;;33.22;19.08;;;;;;;10.77;69.23;100262.75;5115992;27;20043;-48
2024/03/16 04:09:26;;;;;;;32.17;18.60;;;;;;;10.82;69.01;100258.00;5115832;27;20059;-48
2024/03/16 04:11:54;;;;;;;33.58;18.75;;;;;;;10.88;69.06;100262.97;5115678;27;20502;-48
2024/03/16 04:14:22;;;;;;;30.42;18.23;;;;;;;10.96;69.12;100268.69;5115409;27;20074;-46
2024/03/16 04:16:51;;;;;;;29.65;18.17;;;;;;;11.01;69.34;100276.44;5115788;27;20039;-48
2024/03/16 04:19:19;;;;;;;30.30;18.70;;;;;;;11.07;68.58;100270.69;5115625;27;20043;-50
2024/03/16 04:21:49;;;;;;;30.48;18.83;;;;;;;11.05;68.87;100262.78;5115664;27;20380;-50
2024/03/16 04:24:18;;;;;;;33.03;19.65;;;;;;;11.08;68.81;100272.41;5115867;27;20039;-48
2024/03/16 04:26:47;;;;;;;32.15;18.50;;;;;;;11.11;68.42;100269.56;5115738;27;20074;-47
2024/03/16 04:29:15;;;;;;;28.33;17.67;;;;;;;11.06;68.22;100263.66;5115617;27;20050;-48
2024/03/16 04:31:43;;;;;;;30.98;18.92;;;;;;;10.93;68.24;100266.22;5115256;27;20051;-48
2024/03/16 04:34:12;;;;;;;32.05;18.63;;;;;;;10.86;68.91;100272.88;5115696;27;20403;-48
2024/03/16 04:36:40;;;;;;;33.63;18.60;;;;;;;10.92;69.78;100268.97;5115202;27;20043;-49
2024/03/16 04:39:09;;;;;;;32.65;19.02;;;;;;;10.94;72.37;100265.25;5114869;27;20078;-48
2024/03/16 04:41:37;;;;;;;29.27;17.98;;;;;;;11.00;73.35;100269.34;5115257;27;20464;-47
2024/03/16 04:44:06;;;;;;;31.73;19.00;;;;;;;10.97;75.38;100264.22;5115365;27;20133;-52
2024/03/16 04:46:34;;;;;;;32.88;19.83;;;;;;;10.91;76.59;100268.13;5115834;27;20053;-50
2024/03/16 04:49:02;;;;;;;32.15;18.63;;;;;;;10.86;77.58;100271.06;5115415;27;20043;-48
2024/03/16 04:51:31;;;;;;;33.28;19.58;;;;;;;10.87;79.17;100267.44;5115715;27;20049;-47
2024/03/16 04:54:01;;;;;;;31.58;19.65;;;;;;;10.85;80.70;100263.16;5115690;27;20078;-50
2024/03/16 04:56:29;;;;;;;30.85;18.92;;;;;;;10.87;82.49;100275.44;5115373;27;20039;-47
2024/03/16 04:58:57;;;;;;;31.88;19.40;;;;;;;10.80;85.29;100267.91;5115177;27;20043;-48
2024/03/16 05:01:26;;;;;;;33.38;20.40;;;;;;;10.84;86.41;100270.31;5115082;27;20045;-47
2024/03/16 05:03:54;;;;;;;35.75;20.90;;;;;;;10.83;88.00;100268.59;5114753;27;20107;-46
2024/03/16 05:06:23;;;;;;;32.97;19.92;;;;;;;10.77;90.98;100268.94;5114837;27;20039;-45
2024/03/16 05:08:51;;;;;;;33.22;20.17;;;;;;;10.74;92.08;100263.81;5115114;27;20046;-48
2024/03/16 05:11:19;;;;;;;35.00;20.70;;;;;;;10.71;94.65;100261.34;5115069;27;20051;-49
2024/03/16 05:13:48;;;;;;;35.50;21.05;;;;;;;10.65;96.00;100255.50;5114410;27;20495;-46
2024/03/16 05:16:16;;;;;;;33.42;20.73;;;;;;;10.71;96.09;100256.00;5114940;27;20047;-49
2024/03/16 05:18:45;;;;;;;31.00;19.70;;;;;;;10.72;96.28;100259.53;5114526;27;20134;-49
2024/03/16 05:21:13;;;;;;;34.38;21.33;;;;;;;10.76;96.00;100269.91;5114321;27;20047;-48
2024/03/16 05:23:45;;;;;;;34.47;21.00;;;;;;;10.79;94.71;100261.72;5114616;27;20134;-47
2024/03/16 05:26:14;;;;;;;33.15;20.25;;;;;;;10.81;93.85;100259.81;5114857;27;20123;-48
2024/03/16 05:28:42;;;;;;;30.25;19.20;;;;;;;10.89;93.25;100262.84;5114196;27;20043;-48
2024/03/16 05:31:11;;;;;;;33.65;20.50;;;;;;;10.82;94.01;100261.53;5114053;27;20090;-49
2024/03/16 05:33:39;;;;;;;32.35;19.75;;;;;;;10.85;91.19;100253.34;5113992;27;20812;-46
2024/03/16 05:36:09;;;;;;;32.22;20.23;;;;;;;10.79;91.31;100253.69;5114226;27;20051;-47
2024/03/16 05:38:37;;;;;;;34.35;20.40;;;;;;;10.68;92.13;100255.31;5114344;27;20096;-46
2024/03/16 05:41:06;;;;;;;32.05;19.55;;;;;;;10.41;93.84;100252.47;5114092;27;20043;-48
2024/03/16 05:43:34;;;;;;;34.22;19.85;;;;;;;10.34;94.71;100264.47;5114045;27;20058;-49
2024/03/16 05:46:03;;;;;;;35.60;20.80;;;;;;;10.46;93.66;100261.09;5113821;27;20039;-48
2024/03/16 05:48:31;;;;;;;35.15;21.05;;;;;;;10.47;93.58;100254.78;5114456;27;20087;-47
2024/03/16 05:51:01;;;;;;;32.53;20.40;;;;;;;10.58;92.17;100253.19;5114360;27;20062;-48
2024/03/16 05:53:29;;;;;;;32.40;20.00;;;;;;;10.56;92.85;100255.09;5115796;27;20047;-49
2024/03/16 05:55:58;;;;;;;34.15;19.33;;;;;;;10.55;93.84;100257.88;5113975;27;20506;-49
2024/03/16 05:58:28;;;;;;;32.88;20.27;;;;;;;10.71;92.74;100258.66;5113799;27;20509;-49
2024/03/16 06:00:56;;;;;;;35.05;20.08;;;;;;;10.77;89.89;100268.94;5113616;27;20047;-51
2024/03/16 06:03:26;;;;;;;30.98;19.13;;;;;;;10.87;89.13;100271.91;5113820;27;20092;-48
2024/03/16 06:05:55;;;;;;;37.00;20.92;;;;;;;10.99;87.74;100264.97;5114027;27;20050;-47
2024/03/16 06:08:23;;;;;;;32.85;20.48;;;;;;;10.67;87.97;100267.78;5113871;27;20467;-47
2024/03/16 06:10:52;;;;;;;35.30;20.50;;;;;;;10.42;88.92;100262.19;5114012;27;20446;-48
2024/03/16 06:13:23;;;;;;;32.15;19.58;;;;;;;10.67;86.88;100261.59;5114554;27;20076;-46
2024/03/16 06:15:51;;;;;;;31.13;18.85;;;;;;;10.68;84.45;100260.66;5114969;27;20049;-47
2024/03/16 06:18:19;;;;;;;32.97;19.67;;;;;;;10.80;84.78;100257.22;5113722;27;20039;-46
2024/03/16 06:20:48;;;;;;;32.28;20.00;;;;;;;10.98;84.94;100276.59;5114177;28;20042;-47
2024/03/16 06:23:17;;;;;;;32.80;19.73;;;;;;;10.99;85.95;100268.50;5114216;28;20043;-49
2024/03/16 06:25:48;;;;;;;33.67;19.98;;;;;;;10.58;89.73;100266.53;5114022;27;20039;-49
2024/03/16 06:28:19;;;;;;;33.83;20.92;;;;;;;10.68;89.97;100279.31;5114948;28;20381;-50
2024/03/16 06:30:48;;;;;;;36.35;20.98;;;;;;;10.83;89.49;100278.41;5114441;28;20047;-49
2024/03/16 06:33:27;;;;;;;35.33;21.13;;;;;;;10.94;89.74;100285.75;5115195;28;20047;-49
2024/03/16 06:35:55;;;;;;;35.58;21.98;;;;;;;10.52;95.04;100290.06;5114421;28;20043;-49
2024/03/16 06:38:24;;;;;;;37.13;21.83;;;;;;;10.53;95.72;100291.78;5113814;28;20051;-50
2024/03/16 06:40:53;;;;;;;34.42;21.10;;;;;;;10.66;94.52;100298.09;5113126;28;20051;-48
2024/03/16 06:43:22;;;;;;;37.30;22.33;;;;;;;10.61;96.10;100305.50;5113625;28;20043;-48
2024/03/16 06:45:51;;;;;;;37.33;21.63;;;;;;;10.52;98.31;100316.75;5113714;28;20103;-49
2024/03/16 06:48:22;;;;;;;32.22;20.67;;;;;;;10.45;98.51;100318.91;5113818;28;20039;-50
2024/03/16 06:50:50;;;;;;;35.22;21.23;;;;;;;10.40;100.00;100322.75;5114085;27;20063;-49
2024/03/16 06:53:19;;;;;;;35.95;22.27;;;;;;;10.40;100.00;100328.09;5113812;28;20093;-49
2024/03/16 06:55:50;;;;;;;35.95;22.02;;;;;;;10.55;100.00;100335.22;5113879;28;20127;-49
2024/03/16 06:58:19;;;;;;;35.42;20.70;;;;;;;10.66;100.00;100330.09;5113819;28;20556;-51
2024/03/16 07:00:47;;;;;;;37.10;21.95;;;;;;;10.74;99.08;100333.19;5113665;28;20046;-46
2024/03/16 07:03:16;;;;;;;36.42;21.50;;;;;;;10.82;97.73;100333.59;5113730;28;20043;-48
2024/03/16 07:05:44;;;;;;;36.50;22.17;;;;;;;10.68;99.30;100338.88;5113510;27;20123;-47
2024/03/16 07:08:15;;;;;;;35.65;21.35;;;;;;;10.58;98.16;100337.69;5113557;28;20126;-48
2024/03/16 07:10:44;;;;;;;34.88;21.75;;;;;;;10.76;96.87;100338.41;5113786;28;20043;-45
2024/03/16 07:13:13;;;;;;;34.28;21.50;;;;;;;10.75;95.75;100342.91;5114382;27;20043;-49
2024/03/16 07:15:41;;;;;;;34.70;21.55;;;;;;;10.52;98.19;100348.75;5117486;27;20092;-47
2024/03/16 07:18:09;;;;;;;35.05;20.90;;;;;;;10.55;98.78;100345.88;5117335;27;20134;-48
2024/03/16 07:20:38;;;;;;;34.08;20.77;;;;;;;10.74;96.06;100357.19;5117270;27;20535;-47
2024/03/16 07:23:06;;;;;;;34.33;21.42;;;;;;;10.74;96.65;100356.34;5117487;27;20047;-48
2024/03/16 07:25:34;;;;;;;34.83;21.35;;;;;;;10.57;96.04;100351.97;5117180;27;20097;-50
2024/03/16 07:28:04;;;;;;;34.72;21.27;;;;;;;10.51;99.60;100353.19;5117255;27;20058;-52
2024/03/16 07:30:32;;;;;;;34.33;21.50;;;;;;;10.54;97.19;100362.84;5117095;27;20154;-50
2024/03/16 07:33:02;;;;;;;35.42;22.10;;;;;;;10.72;96.28;100363.56;5116684;27;20043;-48
2024/03/16 07:35:30;;;;;;;34.22;20.98;;;;;;;10.74;96.81;100364.34;5116758;27;20123;-49
2024/03/16 07:37:59;;;;;;;33.80;20.92;;;;;;;11.03;94.13;100366.13;5116339;27;20069;-46
2024/03/16 07:40:27;;;;;;;35.72;20.88;;;;;;;10.86;94.70;100368.94;5116372;27;20075;-47
2024/03/16 07:42:56;;;;;;;35.92;21.88;;;;;;;10.58;96.25;100369.69;5116652;27;20130;-48
2024/03/16 07:45:25;;;;;;;32.45;21.73;;;;;;;10.54;95.35;100362.84;5116498;27;20129;-47
2024/03/16 07:47:53;;;;;;;35.35;20.48;;;;;;;10.59;93.63;100371.41;5116446;27;20047;-49
2024/03/16 07:50:21;;;;;;;34.20;21.23;;;;;;;10.91;92.64;100366.00;5099707;27;20135;-48
2024/03/16 07:52:49;;;;;;;37.20;21.52;;;;;;;11.07;90.19;100381.00;5116408;27;20047;-51
2024/03/16 07:55:18;;;;;;;33.60;20.63;;;;;;;11.15;90.06;100377.88;5115879;27;20051;-49
2024/03/16 07:57:47;;;;;;;37.13;22.20;;;;;;;10.86;93.42;100371.59;5115900;27;20503;-49
2024/03/16 08:00:16;;;;;;;34.00;22.05;;;;;;;10.65;94.28;100371.06;5116241;27;20043;-48
2024/03/16 08:02:44;;;;;;;31.73;19.60;;;;;;;10.97;91.88;100368.28;5115577;27;20047;-48
2024/03/16 08:05:14;;;;;;;37.00;22.27;;;;;;;11.02;92.36;100364.41;5115607;27;20065;-47
2024/03/16 08:07:44;;;;;;;34.55;20.55;;;;;;;11.20;90.54;100375.78;5115799;27;20074;-48
2024/03/16 08:10:12;;;;;;;59.00;33.22;;;;;;;11.40;87.58;100369.22;5115799;27;20356;-50
2024/03/16 08:12:41;;;;;;;45.38;27.02;;;;;;;11.43;86.68;100375.22;5115836;27;20130;-47
2024/03/16 08:15:10;;;;;;;34.75;20.88;;;;;;;11.52;86.72;100368.47;5115426;27;20070;-48
2024/03/16 08:17:38;;;;;;;34.40;20.48;;;;;;;11.53;86.71;100375.53;5115837;27;20054;-47
2024/03/16 08:20:08;;;;;;;37.28;23.00;;;;;;;11.42;87.19;100373.50;5111078;28;20043;-47
2024/03/16 08:22:37;;;;;;;34.38;21.45;;;;;;;11.37;87.50;100369.41;5111962;27;20119;-51
2024/03/16 08:25:06;;;;;;;33.35;21.13;;;;;;;11.49;87.21;100365.13;5113136;27;20096;-47
2024/03/16 08:27:36;;;;;;;36.03;21.40;;;;;;;11.40;88.43;100364.75;5114567;27;20043;-48
2024/03/16 08:30:05;;;;;;;36.08;21.95;;;;;;;11.34;89.22;100370.44;5110580;28;20048;-47
2024/03/16 08:32:34;;;;;;;35.67;20.98;;;;;;;11.42;88.98;100373.50;5111490;28;20120;-49
2024/03/16 08:35:03;;;;;;;36.95;22.08;;;;;;;11.49;89.32;100367.81;5119676;27;20464;-48
2024/03/16 08:37:32;;;;;;;34.85;22.23;;;;;;;11.69;88.37;100372.75;5114547;27;20047;-46
2024/03/16 08:40:00;;;;;;;38.53;22.33;;;;;;;11.94;94.99;100369.41;5114077;27;20075;-47
2024/03/16 08:42:29;;;;;;;35.92;22.38;;;;;;;11.93;86.60;100373.91;5114370;27;20126;-47
2024/03/16 08:44:57;;;;;;;36.65;21.17;;;;;;;12.06;85.68;100373.09;5112760;27;20174;-46
2024/03/16 08:47:25;;;;;;;34.88;22.00;;;;;;;12.07;82.12;100375.69;5114217;27;20051;-48
2024/03/16 08:49:54;;;;;;;33.70;21.25;;;;;;;12.28;84.33;100374.31;5113747;27;20043;-48
2024/03/16 08:52:25;;;;;;;32.53;21.38;;;;;;;12.48;82.06;100369.47;5114450;27;20039;-49
2024/03/16 08:54:55;;;;;;;36.38;22.50;;;;;;;12.54;83.88;100369.03;5108534;28;20074;-48
2024/03/16 08:57:24;;;;;;;35.78;22.08;;;;;;;12.81;83.06;100371.69;5093915;28;20040;-48
2024/03/16 08:59:52;;;;;;;36.88;21.75;;;;;;;12.88;82.70;100371.19;5099138;27;20078;-47
2024/03/16 09:02:20;;;;;;;34.35;22.27;;;;;;;12.88;81.17;100371.19;5102422;28;20504;-45
2024/03/16 09:04:50;;;;;;;31.10;21.13;;;;;;;12.78;80.24;100362.06;5100355;27;20047;-49
2024/03/16 09:07:20;;;;;;;34.58;21.67;;;;;;;12.78;80.09;100372.75;5114427;27;20047;-48
2024/03/16 09:09:49;;;;;;;34.17;21.08;;;;;;;12.86;81.55;100369.56;5113838;27;20043;-44
2024/03/16 09:12:17;;;;;;;38.70;21.45;;;;;;;13.00;79.86;100371.31;5113972;27;20050;-46
2024/03/16 09:14:45;;;;;;;36.35;21.85;;;;;;;12.87;79.23;100377.50;5111892;27;20176;-48
2024/03/16 09:17:14;;;;;;;33.15;22.02;;;;;;;12.97;78.86;100367.03;5113760;27;20062;-50
2024/03/16 09:19:42;;;;;;;34.42;23.17;;;;;;;12.99;79.01;100373.13;5113129;27;20047;-48
2024/03/16 09:22:10;;;;;;;36.90;23.13;;;;;;;13.04;79.10;100373.69;5113863;27;20050;-48
2024/03/16 09:24:39;;;;;;;34.88;22.98;;;;;;;12.88;78.51;100386.38;5111949;27;20054;-48
2024/03/16 09:27:07;;;;;;;37.40;22.50;;;;;;;12.84;78.42;100376.84;5113692;27;20043;-46
2024/03/16 09:29:38;;;;;;;34.45;22.58;;;;;;;12.47;79.77;100379.31;5112965;27;20069;-46
2024/03/16 09:32:06;;;;;;;37.45;22.92;;;;;;;12.64;80.77;100379.97;5113725;27;20411;-47
2024/03/16 09:34:34;;;;;;;35.88;22.45;;;;;;;12.81;80.21;100372.53;5108639;28;20054;-46
2024/03/16 09:37:03;;;;;;;36.22;22.35;;;;;;;12.94;79.69;100383.31;5092512;28;20051;-47
2024/03/16 09:39:31;;;;;;;38.22;23.58;;;;;;;12.74;79.10;100387.31;5093817;27;20041;-47
2024/03/16 09:42:00;;;;;;;36.08;23.20;;;;;;;12.66;78.76;100384.28;5113253;27;20043;-52
2024/03/16 09:44:29;;;;;;;35.85;21.77;;;;;;;12.40;79.62;100388.69;5111679;27;20043;-46
2024/03/16 09:46:56;;;;;;;36.47;22.30;;;;;;;12.50;81.31;100387.13;5096651;27;20074;-46
2024/03/16 09:49:24;;;;;;;37.53;23.52;;;;;;;12.76;80.15;100384.53;5096226;27;20047;-47
2024/03/16 09:51:51;;;;;;;39.72;23.75;;;;;;;13.04;79.03;100378.19;5096462;27;20070;-48
2024/03/16 09:54:19;;;;;;;33.03;22.50;;;;;;;12.98;79.19;100379.44;5094476;27;20141;-46
2024/03/16 09:56:49;;;;;;;34.60;22.35;;;;;;;12.94;79.02;100388.66;5096594;27;20126;-48
2024/03/16 09:59:17;;;;;;;39.42;23.90;;;;;;;13.13;77.16;100386.44;5096898;27;20508;-48
2024/03/16 10:01:44;;;;;;;32.90;22.60;;;;;;;13.23;77.70;100383.16;5112995;27;20039;-46
2024/03/16 10:04:11;;;;;;;36.72;22.73;;;;;;;13.45;76.48;100384.22;5111098;27;20105;-47
2024/03/16 10:06:39;;;;;;;34.83;22.40;;;;;;;13.58;78.08;100376.19;5095518;27;20115;-50
2024/03/16 10:09:12;;;;;;;34.17;22.27;;;;;;;13.78;76.63;100374.75;5112838;27;20043;-46
2024/03/16 10:11:40;;;;;;;;;;;;;;;13.73;75.37;100383.16;5098215;27;20054;-47
2024/03/16 10:14:09;;;;;;;34.17;21.98;;;;;;;13.89;75.45;100380.22;5128875;27;19962;-49
2024/03/16 10:16:40;;;;;;;34.25;22.33;;;;;;;13.95;75.32;100381.59;5095878;28;20059;-46
2024/03/16 10:19:08;;;;;;;34.47;21.33;;;;;;;14.13;75.00;100377.59;5077442;28;20086;-48
2024/03/16 10:21:35;;;;;;;34.15;21.77;;;;;;;14.27;74.21;100373.88;5076733;28;20043;-49
2024/03/16 10:24:02;;;;;;;34.42;20.63;;;;;;;14.49;73.47;100376.75;5092703;28;20504;-52
2024/03/16 10:26:31;;;;;;;35.55;21.95;;;;;;;14.55;73.91;100380.78;5092836;28;20048;-48
2024/03/16 10:28:59;;;;;;;34.50;22.60;;;;;;;14.35;73.92;100379.56;5092287;28;20124;-48
2024/03/16 10:31:29;;;;;;;33.63;21.63;;;;;;;14.52;72.71;100381.03;5093102;28;20459;-48
2024/03/16 10:33:57;;;;;;;31.35;20.95;;;;;;;14.54;72.35;100373.72;5110277;28;20454;-49
2024/03/16 10:36:25;;;;;;;32.33;21.48;;;;;;;14.69;73.32;100380.63;5092639;28;20052;-51
2024/03/16 10:38:53;;;;;;;35.13;23.65;;;;;;;14.76;72.34;100384.53;5092538;28;20178;-48
2024/03/16 10:41:20;;;;;;;33.58;22.13;;;;;;;14.49;74.28;100381.25;5092717;28;20100;-47
2024/03/16 10:43:47;;;;;;;37.00;22.60;;;;;;;14.69;72.79;100393.19;5092677;28;20134;-49
2024/03/16 10:46:15;;;;;;;33.92;21.42;;;;;;;14.33;74.65;100385.03;5092874;28;20058;-50
2024/03/16 10:48:43;;;;;;;31.08;20.65;;;;;;;14.46;74.06;100386.84;5113466;28;20058;-50
2024/03/16 10:51:12;;;;;;;32.78;21.25;;;;;;;14.76;73.40;100383.69;5096601;28;20134;-51
2024/03/16 10:53:40;;;;;;;32.67;21.25;;;;;;;14.83;71.77;100385.78;5096831;28;20476;-47
2024/03/16 10:56:07;;;;;;;33.63;22.77;;;;;;;14.73;72.78;100384.78;5096795;28;20055;-47
2024/03/16 10:58:35;;;;;;;33.45;22.70;;;;;;;14.85;72.48;100383.00;5096840;28;20040;-47
2024/03/16 11:01:03;;;;;;;32.03;21.38;;;;;;;14.89;70.89;100379.97;5096978;28;20403;-50
2024/03/16 11:03:33;;;;;;;33.83;21.63;;;;;;;14.75;72.94;100384.66;5097310;28;20054;-49
2024/03/16 11:06:01;;;;;;;32.70;21.33;;;;;;;14.67;72.55;100379.00;5096389;28;20092;-50
2024/03/16 11:08:37;;;;;;;31.48;21.98;;;;;;;14.65;72.52;100376.44;5096789;28;20070;-47
2024/03/16 11:11:08;;;;;;;33.40;20.83;;;;;;;14.83;71.00;100369.69;5096860;28;20048;-48
2024/03/16 11:13:35;;;;;;;31.65;20.77;;;;;;;14.88;70.98;100369.34;5096577;28;20083;-48
2024/03/16 11:16:23;;;;;;;32.67;21.00;;;;;;;15.16;70.37;100365.41;5096561;28;20052;-49